createdAt,value
2018-12-31T00:09:25.201Z,87.7
2018-12-31T00:24:37.528Z,87
2018-12-31T00:39:50.016Z,87.8
2018-12-31T00:55:02.470Z,88.9
2018-12-31T01:10:14.753Z,88.7
2018-12-31T01:25:27.189Z,88.9
2018-12-31T01:40:39.583Z,89.2
2018-12-31T01:55:52.017Z,88.3
2018-12-31T02:10:59.809Z,88.5
2018-12-31T02:26:16.667Z,88.4
2018-12-31T02:41:29.146Z,88.3
2018-12-31T02:56:43.046Z,88
2018-12-31T03:11:53.854Z,86.4
2018-12-31T03:27:06.232Z,87.4
2018-12-31T03:42:18.588Z,88.8
2018-12-31T03:57:30.976Z,88.4
2018-12-31T04:12:43.552Z,88.3
2018-12-31T04:27:54.633Z,88.2
2018-12-31T04:43:08.246Z,88.7
2018-12-31T04:58:23.648Z,88.7
2018-12-31T05:13:33.091Z,89.3
2018-12-31T05:28:39.195Z,88.6
2018-12-31T05:43:57.937Z,89.2
2018-12-31T05:59:10.506Z,90.5
2018-12-31T06:14:22.949Z,91.2
2018-12-31T06:29:35.500Z,90.8
2018-12-31T06:44:48.115Z,91.2
2018-12-31T07:00:00.538Z,90.9
2018-12-31T07:15:13.109Z,91.8
2018-12-31T07:30:25.894Z,91.4
2018-12-31T07:45:35.736Z,91.2
2018-12-31T08:00:51.053Z,90.5
2018-12-31T08:16:05.923Z,90.6
2018-12-31T08:31:16.546Z,90.1
2018-12-31T08:46:21.684Z,88.5
2018-12-31T09:01:42.210Z,88.1
2018-12-31T09:16:55.130Z,86.5
2018-12-31T09:32:08.123Z,86.8
2018-12-31T09:47:20.953Z,85.2
2018-12-31T10:02:34.032Z,86.3
2018-12-31T10:17:47.034Z,84
2018-12-31T10:33:00.129Z,84.7
2018-12-31T10:48:13.293Z,82.9
2018-12-31T11:03:22.440Z,83.7
2018-12-31T11:18:39.571Z,82.8
2018-12-31T11:33:52.692Z,82.9
2018-12-31T11:49:05.861Z,85
2018-12-31T12:04:09.389Z,84.5
2018-12-31T12:19:32.146Z,83.5
2018-12-31T12:34:45.697Z,80.9
2018-12-31T12:49:58.737Z,81.1
2018-12-31T13:05:12.290Z,80.3
2018-12-31T13:20:23.934Z,81.5
2018-12-31T13:35:38.908Z,81.5
2018-12-31T13:50:51.851Z,81.5
2018-12-31T14:06:05.399Z,82.2
2018-12-31T14:21:11.146Z,82.4
2018-12-31T14:36:32.048Z,83
2018-12-31T14:51:44.992Z,83
2018-12-31T15:06:58.568Z,83.2
2018-12-31T15:22:11.410Z,84.7
2018-12-31T15:37:24.988Z,85.6
2018-12-31T15:52:38.481Z,86.3
2018-12-31T16:07:51.421Z,85.7
2018-12-31T16:23:04.274Z,85.2
2018-12-31T16:38:13.043Z,85.6
2018-12-31T16:53:30.947Z,86.8
2018-12-31T17:08:43.789Z,86.2
2018-12-31T17:23:56.941Z,85.5
2018-12-31T17:39:10.300Z,85.6
2018-12-31T17:54:23.398Z,85.8
2018-12-31T18:09:36.586Z,86.1
2018-12-31T18:24:49.906Z,87.7
2018-12-31T18:40:02.879Z,88.2
2018-12-31T18:55:13.419Z,89.7
2018-12-31T19:10:29.526Z,88.8
2018-12-31T19:25:42.632Z,88.2
2018-12-31T19:40:56.062Z,88.8
2018-12-31T19:56:00.453Z,89
2018-12-31T20:11:22.536Z,90.5
2018-12-31T20:26:35.857Z,91.7
2018-12-31T20:41:48.892Z,92.1
2018-12-31T20:57:02.206Z,92.1
2018-12-31T21:12:14.256Z,92.7
2018-12-31T21:27:28.711Z,93.9
2018-12-31T21:42:42.030Z,95.5
2018-12-31T21:57:55.455Z,97.1
2018-12-31T22:13:01.080Z,97.2
2018-12-31T22:28:21.946Z,96.5
2018-12-31T22:43:35.036Z,96.6
2018-12-31T22:58:48.646Z,96.2
2018-12-31T23:14:01.741Z,95.5
2018-12-31T23:29:15.159Z,95.8
2018-12-31T23:44:28.508Z,96.2
2018-12-31T23:59:42.352Z,94.7
